createdAt,value
2023-03-03T00:00:29.246Z,14.18
2023-03-03T00:03:06.331Z,15.05
2023-03-03T00:05:39.722Z,13.73
2023-03-03T00:08:12.939Z,13.95
2023-03-03T00:10:46.164Z,13.18
2023-03-03T00:13:22.726Z,17.02
2023-03-03T00:16:12.266Z,15.70
2023-03-03T00:18:46.846Z,12.85
2023-03-03T00:21:30.090Z,12.43
2023-03-03T00:24:19.304Z,12.90
2023-03-03T00:26:55.388Z,12.30
2023-03-03T00:29:36.647Z,14.40
2023-03-03T00:32:24.031Z,13.45
2023-03-03T00:35:02.851Z,13.18
2023-03-03T00:37:36.581Z,13.98
2023-03-03T00:40:22.450Z,12.10
2023-03-03T00:42:56.913Z,13.68
2023-03-03T00:45:36.274Z,10.95
2023-03-03T00:48:21.991Z,13.32
2023-03-03T00:50:56.483Z,13.57
2023-03-03T00:53:31.056Z,13.88
2023-03-03T00:56:03.863Z,14.30
2023-03-03T00:58:36.661Z,14.00
2023-03-03T01:01:10.879Z,14.80
2023-03-03T01:03:49.668Z,15.27
2023-03-03T01:06:22.451Z,14.10
2023-03-03T01:08:57.230Z,13.85
2023-03-03T01:11:30.449Z,12.27
2023-03-03T01:14:03.384Z,14.73
2023-03-03T01:16:37.596Z,14.00
2023-03-03T01:19:10.806Z,14.30
2023-03-03T01:21:43.673Z,15.35
2023-03-03T01:24:16.489Z,14.50
2023-03-03T01:26:49.615Z,15.05
2023-03-03T01:29:22.705Z,17.10
2023-03-03T01:31:57.242Z,15.65
2023-03-03T01:34:30.091Z,15.23
2023-03-03T01:37:04.806Z,14.35
2023-03-03T01:39:37.650Z,13.98
2023-03-03T01:42:10.611Z,14.68
2023-03-03T01:44:43.546Z,14.65
2023-03-03T01:47:20.408Z,15.93
2023-03-03T01:49:59.474Z,14.13
2023-03-03T01:52:36.320Z,15.43
2023-03-03T01:55:14.854Z,15.20
2023-03-03T01:57:51.381Z,15.77
2023-03-03T02:00:25.180Z,15.10
2023-03-03T02:02:59.821Z,15.40
2023-03-03T02:05:34.008Z,15.57
2023-03-03T02:08:08.980Z,14.32
2023-03-03T02:13:16.542Z,15.00
2023-03-03T02:15:49.358Z,14.45
2023-03-03T02:18:24.090Z,15.93
2023-03-03T02:21:03.385Z,15.40
2023-03-03T02:23:41.007Z,16.50
2023-03-03T02:26:17.393Z,16.40
2023-03-03T02:28:51.937Z,14.52
2023-03-03T02:31:27.812Z,13.27
2023-03-03T02:34:01.146Z,14.18
2023-03-03T02:36:36.030Z,17.63
2023-03-03T02:39:13.428Z,16.63
2023-03-03T02:41:53.218Z,16.73
2023-03-03T02:44:28.588Z,14.85
2023-03-03T02:49:36.835Z,14.55
2023-03-03T02:52:11.385Z,14.70
2023-03-03T02:54:47.377Z,15.95
2023-03-03T02:57:21.669Z,14.93
2023-03-03T02:59:55.014Z,14.95
2023-03-03T03:02:28.257Z,18.45
2023-03-03T03:05:01.817Z,16.35
2023-03-03T03:07:34.795Z,16.17
2023-03-03T03:10:09.878Z,15.40
2023-03-03T03:12:46.226Z,16.00
2023-03-03T03:15:19.933Z,16.08
2023-03-03T03:17:53.108Z,15.98
2023-03-03T03:20:26.101Z,16.17
2023-03-03T03:22:58.978Z,15.95
2023-03-03T03:25:31.960Z,15.15
2023-03-03T03:28:06.300Z,16.02
2023-03-03T03:30:40.009Z,16.85
2023-03-03T03:33:13.841Z,16.47
2023-03-03T03:35:48.848Z,17.88
2023-03-03T03:38:23.683Z,14.13
2023-03-03T03:40:57.184Z,18.73
2023-03-03T03:43:31.675Z,15.30
2023-03-03T03:46:05.780Z,17.00
2023-03-03T03:48:39.488Z,17.93
2023-03-03T03:51:14.295Z,15.80
2023-03-03T03:53:47.821Z,16.73
2023-03-03T03:56:20.808Z,15.82
2023-03-03T03:59:00.611Z,17.33
2023-03-03T04:01:34.033Z,16.45
2023-03-03T04:04:07.012Z,16.38
2023-03-03T04:06:40.823Z,16.80
2023-03-03T04:09:13.875Z,15.35
2023-03-03T04:11:46.990Z,15.73
2023-03-03T04:14:22.304Z,18.45
2023-03-03T04:16:55.150Z,16.38
2023-03-03T04:19:28.038Z,17.85
2023-03-03T04:22:01.843Z,17.02
2023-03-03T04:24:35.604Z,18.40
2023-03-03T04:27:09.727Z,17.30
2023-03-03T04:29:44.910Z,17.10
2023-03-03T04:32:18.620Z,17.15
2023-03-03T04:34:58.694Z,18.05
2023-03-03T04:37:40.588Z,19.00
2023-03-03T04:40:14.301Z,17.40
2023-03-03T04:42:48.738Z,17.15
2023-03-03T04:45:23.053Z,19.67
2023-03-03T04:47:55.880Z,16.83
2023-03-03T04:50:28.829Z,16.33
2023-03-03T04:53:02.060Z,17.23
2023-03-03T04:55:37.118Z,18.13
2023-03-03T04:58:10.697Z,17.92
2023-03-03T05:00:48.309Z,18.52
2023-03-03T05:03:24.069Z,16.88
2023-03-03T05:05:57.036Z,18.00
2023-03-03T05:08:29.923Z,18.00
2023-03-03T05:11:02.842Z,16.75
2023-03-03T05:13:36.146Z,17.08
2023-03-03T05:16:10.565Z,16.20
2023-03-03T05:18:45.430Z,19.02
2023-03-03T05:23:52.579Z,16.05
2023-03-03T05:26:25.932Z,18.73
2023-03-03T05:28:58.793Z,17.73
2023-03-03T05:31:33.061Z,17.00
2023-03-03T05:34:05.920Z,16.63
2023-03-03T05:36:38.944Z,18.05
2023-03-03T05:39:11.845Z,15.15
2023-03-03T05:41:44.654Z,14.52
2023-03-03T05:44:19.618Z,15.13
2023-03-03T05:46:56.683Z,16.45
2023-03-03T05:49:30.125Z,15.95
2023-03-03T05:52:03.597Z,14.98
2023-03-03T05:54:36.407Z,15.32
2023-03-03T05:57:09.191Z,15.45
2023-03-03T05:59:42.274Z,14.55
2023-03-03T06:02:16.548Z,16.63
2023-03-03T06:04:50.129Z,15.32
2023-03-03T06:07:22.952Z,14.02
2023-03-03T06:09:55.823Z,16.95
2023-03-03T06:12:29.782Z,16.10
2023-03-03T06:15:03.331Z,17.40
2023-03-03T06:17:37.635Z,14.70
2023-03-03T06:20:11.885Z,14.85
2023-03-03T06:22:44.666Z,14.60
2023-03-03T06:25:18.202Z,12.40
2023-03-03T06:27:51.340Z,17.00
2023-03-03T06:30:24.683Z,17.73
2023-03-03T06:32:59.335Z,17.70
2023-03-03T06:35:32.380Z,15.77
2023-03-03T06:38:06.379Z,15.00
2023-03-03T06:40:39.444Z,15.63
2023-03-03T06:43:12.452Z,16.88
2023-03-03T06:45:47.371Z,16.27
2023-03-03T06:48:21.813Z,14.85
2023-03-03T06:50:55.145Z,14.43
2023-03-03T06:53:28.672Z,14.30
2023-03-03T06:56:03.087Z,14.05
2023-03-03T06:58:36.540Z,12.35
2023-03-03T07:01:16.630Z,13.57
2023-03-03T07:03:51.033Z,16.55
2023-03-03T07:06:26.348Z,14.40
2023-03-03T07:08:59.209Z,14.13
2023-03-03T07:11:32.324Z,16.25
2023-03-03T07:14:15.048Z,12.70
2023-03-03T07:16:48.250Z,13.40
2023-03-03T07:19:29.105Z,13.25
2023-03-03T07:22:12.258Z,14.05
2023-03-03T07:24:47.261Z,14.85
2023-03-03T07:30:18.479Z,11.68
2023-03-03T07:32:56.425Z,12.68
2023-03-03T07:35:41.289Z,13.27
2023-03-03T07:38:32.191Z,12.55
2023-03-03T07:41:11.128Z,12.57
2023-03-03T07:43:49.426Z,12.02
2023-03-03T07:46:35.903Z,12.27
2023-03-03T07:49:22.568Z,12.95
2023-03-03T07:51:58.591Z,12.45
2023-03-03T07:54:36.229Z,10.52
2023-03-03T07:57:20.537Z,11.93
2023-03-03T07:59:55.720Z,11.65
2023-03-03T08:02:39.696Z,11.65
2023-03-03T08:05:28.561Z,11.85
2023-03-03T08:08:26.127Z,11.65
2023-03-03T08:11:00.163Z,11.38
2023-03-03T08:13:39.861Z,11.50
2023-03-03T08:16:34.481Z,10.93
2023-03-03T08:19:08.042Z,10.63
2023-03-03T08:21:40.872Z,9.43
2023-03-03T08:24:15.328Z,10.32
2023-03-03T08:26:48.574Z,9.85
2023-03-03T08:29:21.375Z,11.05
2023-03-03T08:31:54.438Z,9.73
2023-03-03T08:34:27.473Z,9.25
2023-03-03T08:37:00.324Z,9.90
2023-03-03T08:39:34.508Z,8.77
2023-03-03T08:42:07.925Z,10.40
2023-03-03T08:44:41.425Z,9.77
2023-03-03T08:47:14.512Z,10.00
2023-03-03T08:49:47.278Z,10.32
2023-03-03T08:52:20.431Z,10.73
2023-03-03T08:54:54.748Z,10.93
2023-03-03T08:57:27.623Z,11.05
2023-03-03T09:00:00.456Z,10.88
2023-03-03T09:02:33.571Z,10.63
2023-03-03T09:05:07.480Z,10.15
2023-03-03T09:07:41.521Z,9.98
2023-03-03T09:10:19.396Z,9.53
2023-03-03T09:12:53.360Z,12.75
2023-03-03T09:15:28.570Z,10.40
2023-03-03T09:18:14.603Z,10.35
2023-03-03T09:20:48.825Z,10.25
2023-03-03T09:23:34.702Z,8.75
2023-03-03T09:26:26.711Z,10.32
2023-03-03T09:29:19.048Z,10.50
2023-03-03T09:31:53.966Z,8.90
2023-03-03T09:34:40.233Z,9.10
2023-03-03T09:37:22.854Z,8.13
2023-03-03T09:39:58.356Z,11.27
2023-03-03T09:42:56.842Z,9.93
2023-03-03T09:45:53.200Z,8.93
2023-03-03T09:48:51.292Z,10.20
2023-03-03T09:51:42.901Z,10.23
2023-03-03T09:54:28.673Z,9.90
2023-03-03T09:57:10.430Z,11.70
2023-03-03T10:00:00.635Z,10.13
2023-03-03T10:02:45.057Z,10.18
2023-03-03T10:05:36.141Z,11.80
2023-03-03T10:08:31.600Z,9.70
2023-03-03T10:11:13.630Z,11.05
2023-03-03T10:14:01.907Z,10.35
2023-03-03T10:17:07.244Z,10.18
2023-03-03T10:19:47.723Z,12.07
2023-03-03T10:22:25.480Z,9.98
2023-03-03T10:25:09.663Z,9.93
2023-03-03T10:27:57.052Z,12.52
2023-03-03T10:30:54.713Z,12.50
2023-03-03T10:33:43.642Z,12.43
2023-03-03T10:36:40.543Z,11.75
2023-03-03T10:39:28.868Z,11.38
2023-03-03T10:42:22.264Z,11.98
2023-03-03T10:45:12.919Z,11.57
2023-03-03T10:47:57.072Z,11.90
2023-03-03T10:50:37.532Z,12.27
2023-03-03T10:53:23.311Z,12.82
2023-03-03T10:56:14.682Z,11.15
2023-03-03T10:58:59.851Z,11.98
2023-03-03T11:01:48.147Z,11.52
2023-03-03T11:04:46.877Z,12.05
2023-03-03T11:07:25.891Z,13.18
2023-03-03T11:10:15.936Z,12.43
2023-03-03T11:13:03.286Z,11.80
2023-03-03T11:15:49.845Z,12.13
2023-03-03T11:18:43.260Z,11.30
2023-03-03T11:21:25.815Z,11.38
2023-03-03T11:24:20.617Z,13.13
2023-03-03T11:27:20.771Z,12.00
2023-03-03T11:30:03.930Z,12.15
2023-03-03T11:32:44.288Z,10.35
2023-03-03T11:35:23.659Z,13.63
2023-03-03T11:38:20.752Z,10.25
2023-03-03T11:40:58.307Z,12.27
2023-03-03T11:43:44.987Z,10.57
2023-03-03T11:46:23.430Z,10.63
2023-03-03T11:49:01.743Z,9.57
2023-03-03T11:51:49.041Z,11.40
2023-03-03T11:54:28.836Z,10.38
2023-03-03T11:57:15.105Z,11.50
2023-03-03T12:00:17.281Z,10.60
2023-03-03T12:03:14.215Z,9.25
2023-03-03T12:05:57.399Z,9.63
2023-03-03T12:08:42.493Z,9.77
2023-03-03T12:11:23.804Z,10.73
2023-03-03T12:14:03.564Z,11.00
2023-03-03T12:16:50.436Z,10.30
2023-03-03T12:19:35.487Z,9.75
2023-03-03T12:22:34.684Z,9.73
2023-03-03T12:25:21.664Z,10.02
2023-03-03T12:28:01.857Z,10.75
2023-03-03T12:30:50.301Z,9.55
2023-03-03T12:33:36.813Z,10.23
2023-03-03T12:36:23.068Z,8.98
2023-03-03T12:39:03.964Z,9.05
2023-03-03T12:41:41.859Z,9.55
2023-03-03T12:44:26.059Z,8.70
2023-03-03T12:47:02.782Z,9.43
2023-03-03T12:49:48.058Z,9.23
2023-03-03T12:52:39.633Z,9.40
2023-03-03T12:55:22.493Z,9.63
2023-03-03T12:58:03.951Z,9.13
2023-03-03T13:00:48.731Z,11.50
2023-03-03T13:03:43.630Z,9.77
2023-03-03T13:06:33.692Z,10.82
2023-03-03T13:09:20.780Z,10.80
2023-03-03T13:12:09.126Z,9.60
2023-03-03T13:14:50.088Z,10.23
2023-03-03T13:17:29.881Z,9.77
2023-03-03T13:20:06.435Z,10.32
2023-03-03T13:22:47.814Z,9.27
2023-03-03T13:25:35.479Z,9.45
2023-03-03T13:28:19.291Z,9.48
2023-03-03T13:30:59.346Z,8.85
2023-03-03T13:33:37.118Z,9.98
2023-03-03T13:38:51.251Z,9.70
2023-03-03T13:41:32.183Z,9.60
2023-03-03T13:44:12.100Z,9.35
2023-03-03T13:46:56.897Z,9.20
2023-03-03T13:49:49.826Z,8.57
2023-03-03T13:52:24.325Z,8.73
2023-03-03T13:55:14.966Z,9.77
2023-03-03T13:58:00.644Z,9.75
2023-03-03T14:00:50.849Z,9.45
2023-03-03T14:03:54.335Z,8.73
2023-03-03T14:06:29.516Z,9.43
2023-03-03T14:09:16.485Z,9.27
2023-03-03T14:12:03.430Z,10.02
2023-03-03T14:14:48.553Z,8.60
2023-03-03T14:17:30.020Z,9.63
2023-03-03T14:20:16.623Z,11.23
2023-03-03T14:22:54.353Z,11.45
2023-03-03T14:25:27.268Z,11.32
2023-03-03T14:28:05.827Z,11.60
2023-03-03T14:30:40.535Z,12.57
2023-03-03T14:33:21.503Z,11.15
2023-03-03T14:36:15.881Z,11.60
2023-03-03T14:38:51.597Z,10.20
2023-03-03T14:41:37.659Z,11.60
2023-03-03T14:44:27.882Z,11.75
2023-03-03T14:47:21.235Z,11.45
2023-03-03T14:49:55.753Z,10.38
2023-03-03T14:55:05.258Z,11.18
2023-03-03T14:57:46.138Z,11.48
2023-03-03T15:00:35.290Z,11.90
2023-03-03T15:03:22.583Z,10.60
2023-03-03T15:05:57.901Z,11.43
2023-03-03T15:08:34.074Z,10.80
2023-03-03T15:11:18.985Z,10.82
2023-03-03T15:16:35.553Z,11.52
2023-03-03T15:19:38.884Z,12.52
2023-03-03T15:22:21.226Z,11.45
2023-03-03T15:25:02.139Z,12.20
2023-03-03T15:27:41.759Z,12.55
2023-03-03T15:30:25.901Z,11.52
2023-03-03T15:33:08.180Z,11.70
2023-03-03T15:35:52.306Z,12.05
2023-03-03T15:38:38.868Z,12.67
2023-03-03T15:41:24.605Z,11.75
2023-03-03T15:44:06.816Z,12.93
2023-03-03T15:46:55.333Z,11.85
2023-03-03T15:49:45.511Z,11.07
2023-03-03T15:52:33.260Z,10.60
2023-03-03T15:55:18.142Z,9.40
2023-03-03T16:00:44.993Z,8.93
2023-03-03T16:03:23.834Z,10.70
2023-03-03T16:06:01.361Z,10.25
2023-03-03T16:08:46.585Z,9.20
2023-03-03T16:11:27.198Z,9.55
2023-03-03T16:14:11.896Z,9.65
2023-03-03T16:16:54.155Z,9.63
2023-03-03T16:19:40.306Z,9.95
2023-03-03T16:22:40.544Z,10.10
2023-03-03T16:25:27.136Z,9.70
2023-03-03T16:28:07.002Z,10.23
2023-03-03T16:30:49.723Z,9.38
2023-03-03T16:33:28.078Z,9.85
2023-03-03T16:36:11.471Z,9.68
2023-03-03T16:38:53.202Z,10.43
2023-03-03T16:41:35.292Z,9.25
2023-03-03T16:44:20.658Z,9.43
2023-03-03T16:46:55.242Z,9.38
2023-03-03T16:49:38.187Z,10.07
2023-03-03T16:52:14.565Z,9.15
2023-03-03T16:54:55.992Z,9.73
2023-03-03T16:57:42.225Z,9.85
2023-03-03T17:00:22.264Z,10.02
2023-03-03T17:03:05.049Z,9.43
2023-03-03T17:05:45.466Z,9.63
2023-03-03T17:08:56.162Z,10.23
2023-03-03T17:11:42.844Z,9.88
2023-03-03T17:14:27.171Z,11.35
2023-03-03T17:17:07.475Z,10.40
2023-03-03T17:19:57.223Z,9.75
2023-03-03T17:22:42.201Z,10.85
2023-03-03T17:28:11.660Z,11.20
2023-03-03T17:30:59.428Z,10.68
2023-03-03T17:33:47.337Z,11.93
2023-03-03T17:36:33.422Z,12.10
2023-03-03T17:39:19.890Z,11.20
2023-03-03T17:41:59.680Z,11.45
2023-03-03T17:44:42.275Z,11.70
2023-03-03T17:47:24.502Z,9.07
2023-03-03T17:50:29.161Z,10.25
2023-03-03T17:53:19.621Z,10.32
2023-03-03T17:56:10.111Z,8.07
2023-03-03T17:59:10.496Z,7.63
2023-03-03T18:02:13.582Z,9.38
2023-03-03T18:05:11.358Z,8.30
2023-03-03T18:07:59.846Z,8.82
2023-03-03T18:10:53.928Z,7.80
2023-03-03T18:14:11.516Z,9.30
2023-03-03T18:16:59.285Z,7.85
2023-03-03T18:20:00.496Z,7.53
2023-03-03T18:22:34.756Z,7.82
2023-03-03T18:25:12.747Z,6.68
2023-03-03T18:27:46.543Z,7.28
2023-03-03T18:30:35.162Z,6.93
2023-03-03T18:33:14.753Z,5.90
2023-03-03T18:35:51.044Z,5.95
2023-03-03T18:38:30.272Z,6.38
2023-03-03T18:41:04.560Z,4.28
2023-03-03T18:43:54.605Z,4.20
2023-03-03T18:46:49.805Z,3.38
2023-03-03T18:49:52.473Z,4.18
2023-03-03T18:52:29.816Z,3.50
2023-03-03T18:55:24.907Z,3.53
2023-03-03T18:58:28.720Z,3.35
2023-03-03T19:01:13.833Z,3.35
2023-03-03T19:04:03.391Z,3.10
2023-03-03T19:07:11.918Z,5.22
2023-03-03T19:09:57.004Z,6.10
2023-03-03T19:15:47.776Z,4.97
2023-03-03T19:18:23.663Z,4.57
2023-03-03T19:21:00.614Z,4.45
2023-03-03T19:23:53.334Z,4.60
2023-03-03T19:26:46.131Z,5.38
2023-03-03T19:29:33.441Z,5.80
2023-03-03T19:32:24.775Z,5.65
2023-03-03T19:35:16.070Z,6.65
2023-03-03T19:37:59.153Z,6.47
2023-03-03T19:40:38.638Z,6.30
2023-03-03T19:43:25.344Z,6.43
2023-03-03T19:46:12.241Z,5.80
2023-03-03T19:48:49.782Z,5.72
2023-03-03T19:51:30.442Z,5.60
2023-03-03T19:54:18.620Z,5.03
2023-03-03T19:56:54.197Z,5.80
2023-03-03T19:59:37.919Z,4.47
2023-03-03T20:02:31.425Z,3.63
2023-03-03T20:05:17.247Z,4.03
2023-03-03T20:08:01.904Z,3.70
2023-03-03T20:10:50.376Z,3.35
2023-03-03T20:13:34.797Z,3.90
2023-03-03T20:16:22.722Z,4.53
2023-03-03T20:19:09.597Z,4.22
2023-03-03T20:21:53.141Z,3.97
2023-03-03T20:24:57.100Z,3.50
2023-03-03T20:27:36.862Z,3.25
2023-03-03T20:30:23.260Z,4.03
2023-03-03T20:33:12.569Z,3.70
2023-03-03T20:35:57.627Z,3.20
2023-03-03T20:38:41.107Z,3.25
2023-03-03T20:41:25.556Z,3.90
2023-03-03T20:44:18.232Z,3.03
2023-03-03T20:46:59.271Z,3.15
2023-03-03T20:49:48.744Z,3.10
2023-03-03T20:52:30.803Z,3.33
2023-03-03T20:55:14.843Z,2.80
2023-03-03T20:57:54.523Z,3.88
2023-03-03T21:00:34.654Z,3.63
2023-03-03T21:03:14.403Z,3.55
2023-03-03T21:05:59.126Z,2.85
2023-03-03T21:08:43.778Z,3.08
2023-03-03T21:11:19.233Z,2.70
2023-03-03T21:13:54.161Z,3.17
2023-03-03T21:19:08.993Z,2.72
2023-03-03T21:21:46.185Z,3.05
2023-03-03T21:24:20.816Z,2.58
2023-03-03T21:26:56.156Z,2.58
2023-03-03T21:29:31.208Z,3.00
2023-03-03T21:32:06.211Z,3.65
2023-03-03T21:34:40.614Z,6.05
2023-03-03T21:37:35.606Z,5.82
2023-03-03T21:40:18.243Z,3.95
2023-03-03T21:42:51.593Z,4.05
2023-03-03T21:45:24.675Z,3.00
2023-03-03T21:47:59.285Z,3.88
2023-03-03T21:50:35.935Z,3.05
2023-03-03T21:53:08.842Z,4.03
2023-03-03T21:55:48.691Z,3.53
2023-03-03T21:58:21.884Z,3.78
2023-03-03T22:00:55.625Z,3.53
2023-03-03T22:03:29.083Z,3.28
2023-03-03T22:06:02.708Z,3.78
2023-03-03T22:08:35.954Z,4.70
2023-03-03T22:11:10.466Z,3.40
2023-03-03T22:13:44.945Z,3.90
2023-03-03T22:16:18.046Z,4.03
2023-03-03T22:18:51.386Z,3.80
2023-03-03T22:21:24.904Z,3.65
2023-03-03T22:23:59.848Z,4.15
2023-03-03T22:29:07.424Z,4.63
2023-03-03T22:31:40.772Z,35.70
2023-03-03T22:34:13.787Z,3.15
2023-03-03T22:36:46.682Z,3.63
2023-03-03T22:39:20.466Z,3.58
2023-03-03T22:41:54.841Z,3.67
2023-03-03T22:44:27.678Z,3.67
2023-03-03T22:47:00.646Z,2.90
2023-03-03T22:49:33.551Z,3.90
2023-03-03T22:52:06.591Z,3.58
2023-03-03T22:54:39.645Z,4.00
2023-03-03T22:57:13.835Z,3.40
2023-03-03T22:59:47.122Z,3.20
2023-03-03T23:02:19.929Z,3.83
2023-03-03T23:04:58.072Z,3.10
2023-03-03T23:07:31.757Z,3.17
2023-03-03T23:10:06.138Z,2.70
2023-03-03T23:12:40.595Z,4.05
2023-03-03T23:15:15.586Z,3.00
2023-03-03T23:17:48.451Z,3.85
2023-03-03T23:20:23.906Z,2.63
2023-03-03T23:22:57.087Z,3.45
2023-03-03T23:25:30.211Z,3.33
2023-03-03T23:28:04.360Z,3.20
2023-03-03T23:30:37.223Z,2.90
2023-03-03T23:33:10.012Z,2.83
2023-03-03T23:35:45.289Z,3.65
2023-03-03T23:38:18.186Z,3.75
2023-03-03T23:40:51.044Z,3.03
2023-03-03T23:43:25.371Z,4.28
2023-03-03T23:45:58.222Z,3.38
2023-03-03T23:48:31.083Z,3.00
2023-03-03T23:51:03.970Z,3.60
2023-03-03T23:53:36.890Z,3.35
2023-03-03T23:56:09.854Z,4.60
2023-03-03T23:58:44.366Z,3.47
